Mesquite's Hourly Summary for Thursday, March 16, 2017
Hour Temp
(f)
RH
(%)
Solar Rad.
(MJ/m2)
Rainfall
(in)
Wind
(mph)
3/16/2017 12:00 AM 54 62 0 0 4.83
3/16/2017 1:00 AM 53 64 0 0 4.1
3/16/2017 2:00 AM 51 68 0 0 3.49
3/16/2017 3:00 AM 50 73 0 0 4.04
3/16/2017 4:00 AM 50 76 0 0 5.55
3/16/2017 5:00 AM 52 80 0 0 9.1
3/16/2017 6:00 AM 53 86 0 0 10.41
3/16/2017 7:00 AM 54 89 0 0 7.78
3/16/2017 8:00 AM 55 92 0.01 0 6.35
3/16/2017 9:00 AM 55 91 0.11 0 6.16
3/16/2017 10:00 AM 56 87 0.19 0 6.18
3/16/2017 11:00 AM 57 85 0.28 0 6.15
3/16/2017 12:00 PM 58 80 0.56 0 7.25
3/16/2017 1:00 PM 61 75 0.99 0 8.17
3/16/2017 2:00 PM 63 74 0.94 0 8.34
3/16/2017 3:00 PM 64 72 0.56 0 6.9
3/16/2017 4:00 PM 66 69 0.49 0 6.25
3/16/2017 5:00 PM 69 67 0.72 0 10.84
3/16/2017 6:00 PM 70 64 0.65 0 9.11
3/16/2017 7:00 PM 71 64 0.4 0 9.52
3/16/2017 8:00 PM 70 65 0.06 0 8.09
3/16/2017 9:00 PM 69 68 0 0 8.12
3/16/2017 10:00 PM 67 73 0 0 8.63
3/16/2017 11:00 PM 65 77 0 0 8.42
Data Summary 59 75 5.96 0.00 7.24